createdAt,value
2018-03-21T00:00:00.280Z,13.80
2018-03-21T00:02:26.539Z,12.03
2018-03-21T00:04:54.511Z,11.00
2018-03-21T00:07:20.745Z,13.87
2018-03-21T00:09:47.100Z,12.37
2018-03-21T00:12:14.343Z,11.67
2018-03-21T00:14:42.007Z,14.57
2018-03-21T00:17:09.674Z,11.40
2018-03-21T00:19:35.920Z,11.40
2018-03-21T00:22:02.930Z,10.43
2018-03-21T00:24:29.189Z,12.93
2018-03-21T00:26:55.429Z,11.90
2018-03-21T00:29:22.981Z,11.23
2018-03-21T00:31:49.741Z,12.70
2018-03-21T00:34:17.205Z,12.60
2018-03-21T00:36:44.672Z,14.50
2018-03-21T00:39:11.744Z,12.03
2018-03-21T00:41:38.674Z,12.37
2018-03-21T00:44:06.111Z,11.17
2018-03-21T00:46:32.359Z,10.93
2018-03-21T00:48:58.602Z,13.83
2018-03-21T00:51:25.669Z,15.83
2018-03-21T00:53:53.218Z,13.70
2018-03-21T00:56:20.213Z,10.80
2018-03-21T00:58:47.080Z,11.37
2018-03-21T01:01:13.350Z,11.57
2018-03-21T01:03:40.335Z,12.70
2018-03-21T01:06:07.149Z,12.63
2018-03-21T01:08:34.138Z,16.30
2018-03-21T01:11:01.056Z,12.60
2018-03-21T01:13:28.107Z,11.50
2018-03-21T01:15:55.090Z,11.53
2018-03-21T01:18:22.002Z,12.73
2018-03-21T01:20:48.256Z,14.67
2018-03-21T01:23:15.284Z,14.80
2018-03-21T01:25:42.855Z,14.93
2018-03-21T01:28:10.350Z,13.00
2018-03-21T01:30:36.981Z,12.43
2018-03-21T01:33:03.582Z,11.40
2018-03-21T01:35:31.106Z,17.00
2018-03-21T01:37:57.399Z,14.87
2018-03-21T01:40:24.874Z,15.87
2018-03-21T01:42:52.352Z,12.50
2018-03-21T01:45:19.077Z,17.10
2018-03-21T01:47:46.065Z,13.97
2018-03-21T01:50:12.320Z,14.60
2018-03-21T01:52:39.110Z,13.33
2018-03-21T01:55:06.102Z,13.20
2018-03-21T01:57:32.423Z,12.73
2018-03-21T01:59:59.242Z,14.17
2018-03-21T02:02:26.226Z,16.20
2018-03-21T02:04:53.151Z,14.30
2018-03-21T02:07:20.166Z,14.43
2018-03-21T02:09:46.942Z,12.90
2018-03-21T02:12:13.912Z,12.93
2018-03-21T02:14:40.154Z,12.30
2018-03-21T02:17:07.146Z,11.13
2018-03-21T02:19:33.407Z,12.00
2018-03-21T02:21:59.647Z,14.10
2018-03-21T02:24:27.097Z,11.80
2018-03-21T02:26:53.958Z,11.27
2018-03-21T02:29:20.945Z,11.50
2018-03-21T02:31:47.768Z,11.20
2018-03-21T02:34:15.431Z,11.27
2018-03-21T02:36:42.892Z,12.53
2018-03-21T02:39:10.348Z,13.13
2018-03-21T02:41:37.914Z,11.63
2018-03-21T02:44:04.897Z,10.30
2018-03-21T02:46:31.136Z,11.27
2018-03-21T02:48:57.637Z,10.70
2018-03-21T02:51:24.663Z,10.33
2018-03-21T02:54:06.252Z,13.37
2018-03-21T02:56:32.496Z,12.90
2018-03-21T02:58:58.753Z,12.30
2018-03-21T03:01:25.748Z,10.50
2018-03-21T03:03:52.122Z,10.10
2018-03-21T03:06:20.218Z,9.37
2018-03-21T03:08:47.217Z,9.50
2018-03-21T03:11:13.475Z,9.27
2018-03-21T03:13:39.735Z,14.00
2018-03-21T03:16:06.718Z,13.53
2018-03-21T03:18:33.420Z,11.47
2018-03-21T03:21:00.062Z,10.70
2018-03-21T03:23:27.041Z,11.30
2018-03-21T03:25:53.361Z,9.27
2018-03-21T03:28:20.366Z,10.13
2018-03-21T03:30:48.107Z,10.80
2018-03-21T03:33:14.833Z,10.50
2018-03-21T03:35:42.383Z,15.00
2018-03-21T03:38:10.770Z,18.30
2018-03-21T03:40:53.158Z,14.83
2018-03-21T03:43:19.424Z,16.70
2018-03-21T03:45:45.678Z,15.43
2018-03-21T03:48:12.290Z,12.63
2018-03-21T03:50:39.377Z,11.80
2018-03-21T03:53:06.081Z,10.67
2018-03-21T03:55:33.095Z,10.30
2018-03-21T03:57:59.354Z,12.77
2018-03-21T04:00:25.626Z,9.70
2018-03-21T04:02:51.886Z,12.60
2018-03-21T04:05:18.569Z,14.70
2018-03-21T04:07:44.862Z,11.33
2018-03-21T04:10:12.697Z,11.47
2018-03-21T04:12:40.651Z,11.80
2018-03-21T04:15:07.695Z,14.43
2018-03-21T04:17:34.374Z,12.40
2018-03-21T04:20:01.830Z,10.83
2018-03-21T04:22:28.862Z,12.77
2018-03-21T04:24:55.114Z,10.90
2018-03-21T04:27:22.473Z,10.00
2018-03-21T04:29:49.455Z,12.20
2018-03-21T04:32:16.154Z,12.10
2018-03-21T04:34:43.706Z,13.47
2018-03-21T04:37:10.430Z,11.10
2018-03-21T04:39:36.709Z,11.00
2018-03-21T04:42:04.127Z,9.40
2018-03-21T04:44:30.388Z,10.70
2018-03-21T04:46:56.665Z,13.93
2018-03-21T04:49:23.241Z,12.00
2018-03-21T04:51:50.137Z,13.60
2018-03-21T04:54:18.320Z,14.70
2018-03-21T04:56:45.319Z,12.30
2018-03-21T04:59:11.602Z,12.53
2018-03-21T05:01:39.166Z,12.50
2018-03-21T05:04:06.182Z,14.47
2018-03-21T05:06:32.889Z,15.80
2018-03-21T05:08:59.144Z,11.63
2018-03-21T05:11:25.886Z,11.63
2018-03-21T05:13:52.150Z,11.53
2018-03-21T05:16:18.802Z,12.97
2018-03-21T05:18:45.521Z,16.37
2018-03-21T05:21:11.774Z,18.10
2018-03-21T05:23:38.022Z,13.67
2018-03-21T05:26:05.023Z,12.63
2018-03-21T05:28:31.271Z,11.93
2018-03-21T05:30:59.505Z,13.10
2018-03-21T05:33:27.156Z,18.47
2018-03-21T05:35:53.775Z,20.50
2018-03-21T05:38:20.034Z,19.87
2018-03-21T05:40:47.601Z,22.43
2018-03-21T05:43:14.590Z,22.90
2018-03-21T05:45:41.409Z,20.40
2018-03-21T05:48:08.405Z,20.10
2018-03-21T05:50:34.665Z,15.80
2018-03-21T05:53:01.453Z,17.83
2018-03-21T05:55:27.705Z,17.90
2018-03-21T05:57:55.284Z,19.77
2018-03-21T06:00:22.006Z,17.13
2018-03-21T06:02:48.254Z,13.90
2018-03-21T06:05:15.030Z,14.63
2018-03-21T06:07:41.281Z,14.93
2018-03-21T06:10:08.313Z,15.90
2018-03-21T06:12:34.680Z,15.67
2018-03-21T06:15:02.167Z,15.30
2018-03-21T06:17:28.427Z,14.30
2018-03-21T06:19:54.713Z,16.90
2018-03-21T06:22:21.977Z,22.97
2018-03-21T06:24:48.982Z,21.20
2018-03-21T06:27:15.305Z,17.10
2018-03-21T06:29:42.121Z,17.53
2018-03-21T06:32:09.894Z,16.63
2018-03-21T06:34:37.350Z,17.30
2018-03-21T06:37:04.806Z,14.13
2018-03-21T06:39:31.785Z,14.13
2018-03-21T06:41:58.362Z,16.87
2018-03-21T06:44:24.616Z,14.97
2018-03-21T06:46:50.858Z,14.43
2018-03-21T06:49:17.865Z,16.73
2018-03-21T06:51:44.787Z,14.93
2018-03-21T06:54:11.466Z,13.80
2018-03-21T06:56:39.934Z,15.20
2018-03-21T06:59:06.751Z,17.10
2018-03-21T07:01:33.734Z,17.00
2018-03-21T07:04:00.017Z,14.10
2018-03-21T07:06:27.446Z,15.60
2018-03-21T07:08:53.690Z,18.47
2018-03-21T07:11:20.576Z,18.30
2018-03-21T07:13:59.841Z,14.50
2018-03-21T07:16:38.742Z,15.17
2018-03-21T07:19:06.120Z,18.40
2018-03-21T07:21:32.941Z,14.40
2018-03-21T07:23:59.924Z,17.70
2018-03-21T07:26:26.964Z,16.90
2018-03-21T07:28:53.234Z,15.70
2018-03-21T07:31:20.136Z,14.93
2018-03-21T07:33:47.126Z,13.70
2018-03-21T07:36:13.923Z,13.93
2018-03-21T07:38:40.914Z,14.10
2018-03-21T07:41:08.143Z,14.63
2018-03-21T07:43:35.134Z,11.90
2018-03-21T07:46:01.406Z,15.63
2018-03-21T07:48:28.041Z,15.33
2018-03-21T07:50:54.295Z,14.03
2018-03-21T07:53:21.056Z,13.30
2018-03-21T07:55:48.358Z,14.87
2018-03-21T07:58:14.620Z,13.27
2018-03-21T08:00:41.614Z,13.43
2018-03-21T08:03:07.904Z,14.00
2018-03-21T08:05:34.615Z,15.03
2018-03-21T08:08:00.908Z,15.30
2018-03-21T08:10:28.241Z,14.00
2018-03-21T08:12:54.503Z,14.07
2018-03-21T08:15:21.494Z,12.80
2018-03-21T08:17:47.774Z,15.40
2018-03-21T08:20:14.639Z,13.53
2018-03-21T08:22:41.635Z,12.00
2018-03-21T08:25:08.791Z,14.10
2018-03-21T08:27:35.010Z,14.70
2018-03-21T08:30:01.327Z,12.97
2018-03-21T08:32:28.655Z,10.97
2018-03-21T08:34:56.383Z,9.40
2018-03-21T08:37:23.111Z,11.17
2018-03-21T08:39:49.370Z,13.87
2018-03-21T08:42:16.045Z,13.60
2018-03-21T08:44:43.478Z,13.67
2018-03-21T08:47:09.741Z,12.20
2018-03-21T08:49:36.744Z,12.90
2018-03-21T08:52:03.634Z,11.67
2018-03-21T08:54:29.883Z,19.80
2018-03-21T08:56:56.144Z,14.60
2018-03-21T08:59:23.802Z,12.60
2018-03-21T09:01:50.789Z,14.23
2018-03-21T09:04:17.034Z,15.70
2018-03-21T09:06:44.034Z,14.13
2018-03-21T09:09:11.071Z,22.57
2018-03-21T09:11:37.329Z,13.77
2018-03-21T09:14:04.414Z,18.90
2018-03-21T09:16:30.655Z,11.93
2018-03-21T09:18:57.441Z,11.13
2018-03-21T09:21:23.689Z,9.80
2018-03-21T09:23:51.345Z,13.50
2018-03-21T09:26:18.349Z,12.00
2018-03-21T09:28:44.592Z,13.37
2018-03-21T09:31:11.389Z,14.40
2018-03-21T09:33:38.351Z,13.33
2018-03-21T09:36:05.807Z,15.60
2018-03-21T09:38:32.055Z,14.10
2018-03-21T09:40:59.081Z,12.57
2018-03-21T09:43:25.834Z,15.00
2018-03-21T09:45:52.842Z,14.20
2018-03-21T09:48:19.090Z,14.70
2018-03-21T09:50:45.873Z,16.33
2018-03-21T09:53:13.222Z,14.80
2018-03-21T09:55:39.463Z,13.73
2018-03-21T09:58:06.503Z,17.30
2018-03-21T10:00:33.054Z,14.73
2018-03-21T10:03:00.043Z,12.90
2018-03-21T10:05:26.743Z,14.73
2018-03-21T10:07:52.987Z,13.67
2018-03-21T10:10:19.985Z,15.70
2018-03-21T10:12:46.486Z,15.43
2018-03-21T10:15:13.497Z,12.43
2018-03-21T10:17:39.838Z,15.20
2018-03-21T10:20:06.636Z,15.63
2018-03-21T10:22:32.894Z,15.10
2018-03-21T10:24:59.586Z,14.30
2018-03-21T10:27:25.844Z,16.47
2018-03-21T10:29:52.087Z,15.13
2018-03-21T10:32:18.913Z,14.63
2018-03-21T10:34:45.881Z,13.77
2018-03-21T10:37:12.709Z,13.20
2018-03-21T10:39:38.906Z,14.73
2018-03-21T10:42:06.410Z,14.93
2018-03-21T10:44:33.438Z,14.00
2018-03-21T10:46:59.726Z,15.00
2018-03-21T10:49:26.523Z,11.67
2018-03-21T10:51:53.289Z,14.03
2018-03-21T10:54:20.299Z,14.47
2018-03-21T10:56:46.541Z,14.97
2018-03-21T10:59:13.113Z,15.20
2018-03-21T11:01:40.722Z,16.27
2018-03-21T11:04:07.040Z,18.03
2018-03-21T11:06:33.771Z,18.33
2018-03-21T11:09:00.042Z,17.50
2018-03-21T11:11:26.308Z,18.70
2018-03-21T11:13:52.870Z,19.10
2018-03-21T11:16:19.870Z,20.30
2018-03-21T11:18:46.545Z,20.90
2018-03-21T11:21:12.822Z,18.93
2018-03-21T11:23:39.054Z,20.00
2018-03-21T11:26:05.393Z,21.40
2018-03-21T11:28:31.695Z,20.27
2018-03-21T11:30:59.078Z,19.03
2018-03-21T11:33:26.113Z,18.47
2018-03-21T11:35:53.132Z,19.50
2018-03-21T11:38:19.393Z,19.63
2018-03-21T11:40:46.359Z,19.57
2018-03-21T11:43:13.346Z,19.63
2018-03-21T11:45:40.062Z,19.40
2018-03-21T11:48:07.111Z,19.10
2018-03-21T11:50:34.120Z,20.07
2018-03-21T11:53:00.680Z,20.00
2018-03-21T11:55:28.162Z,18.70
2018-03-21T11:57:55.150Z,18.47
2018-03-21T12:00:21.962Z,18.00
2018-03-21T12:02:48.960Z,17.53
2018-03-21T12:05:15.760Z,20.40
2018-03-21T12:07:42.788Z,15.93
2018-03-21T12:10:09.147Z,18.23
2018-03-21T12:12:37.646Z,14.80
2018-03-21T12:15:05.414Z,17.10
2018-03-21T12:17:32.414Z,17.93
2018-03-21T12:19:58.693Z,17.37
2018-03-21T12:22:25.647Z,15.50
2018-03-21T12:24:52.642Z,16.60
2018-03-21T12:27:19.001Z,14.40
2018-03-21T12:29:46.590Z,13.20
2018-03-21T12:32:14.054Z,14.57
2018-03-21T12:34:41.050Z,15.80
2018-03-21T12:37:07.807Z,15.70
2018-03-21T12:39:34.052Z,14.90
2018-03-21T12:42:00.833Z,16.47
2018-03-21T12:44:28.169Z,17.37
2018-03-21T12:46:54.402Z,20.43
2018-03-21T12:49:22.126Z,18.30
2018-03-21T12:51:49.463Z,19.00
2018-03-21T12:54:16.513Z,17.70
2018-03-21T12:56:44.073Z,17.67
2018-03-21T12:59:11.065Z,17.23
2018-03-21T13:01:37.347Z,17.43
2018-03-21T13:04:04.106Z,18.00
2018-03-21T13:06:31.670Z,17.47
2018-03-21T13:08:58.666Z,17.10
2018-03-21T13:11:25.455Z,17.23
2018-03-21T13:13:52.302Z,18.27
2018-03-21T13:16:18.662Z,18.27
2018-03-21T13:18:46.302Z,19.00
2018-03-21T13:21:12.565Z,18.60
2018-03-21T13:23:39.550Z,18.80
2018-03-21T13:26:06.168Z,19.33
2018-03-21T13:28:32.448Z,21.30
2018-03-21T13:30:59.349Z,19.30
2018-03-21T13:33:25.582Z,20.87
2018-03-21T13:35:52.496Z,19.57
2018-03-21T13:38:18.849Z,18.13
2018-03-21T13:40:45.654Z,19.33
2018-03-21T13:43:12.541Z,18.33
2018-03-21T13:45:38.777Z,19.20
2018-03-21T13:48:05.093Z,18.63
2018-03-21T13:50:32.385Z,17.63
2018-03-21T13:53:00.058Z,17.07
2018-03-21T13:55:27.471Z,18.43
2018-03-21T14:00:51.889Z,16.73
2018-03-21T14:03:18.442Z,17.93
2018-03-21T14:05:45.734Z,18.10
2018-03-21T14:08:13.510Z,19.03
2018-03-21T14:10:40.327Z,18.47
2018-03-21T14:13:07.378Z,19.13
2018-03-21T14:15:34.366Z,18.80
2018-03-21T14:18:00.623Z,19.57
2018-03-21T14:20:27.423Z,18.10
2018-03-21T14:22:53.674Z,19.87
2018-03-21T14:25:20.022Z,24.17
2018-03-21T14:27:46.282Z,23.70
2018-03-21T14:30:12.527Z,18.87
2018-03-21T14:32:39.295Z,18.70
2018-03-21T14:35:06.334Z,15.90
2018-03-21T14:37:33.500Z,17.80
2018-03-21T14:40:00.506Z,17.13
2018-03-21T14:42:27.181Z,13.80
2018-03-21T14:44:53.426Z,16.83
2018-03-21T14:47:20.398Z,18.20
2018-03-21T14:49:47.025Z,15.13
2018-03-21T14:52:14.527Z,17.10
2018-03-21T14:54:41.343Z,16.30
2018-03-21T14:57:08.323Z,15.47
2018-03-21T14:59:34.582Z,15.87
2018-03-21T15:02:00.851Z,17.53
2018-03-21T15:04:27.922Z,17.90
2018-03-21T15:06:54.774Z,17.00
2018-03-21T15:09:21.511Z,16.50
2018-03-21T15:11:48.950Z,17.10
2018-03-21T15:14:15.206Z,16.10
2018-03-21T15:16:42.194Z,17.00
2018-03-21T15:19:08.869Z,15.13
2018-03-21T15:21:35.073Z,15.97
2018-03-21T15:24:01.444Z,17.50
2018-03-21T15:26:28.095Z,16.10
2018-03-21T15:28:54.337Z,15.77
2018-03-21T15:31:21.510Z,22.10
2018-03-21T15:33:48.497Z,20.93
2018-03-21T15:36:15.294Z,15.70
2018-03-21T15:38:42.282Z,15.33
2018-03-21T15:41:09.294Z,15.97
2018-03-21T15:43:36.876Z,15.80
2018-03-21T15:46:03.872Z,16.83
2018-03-21T15:48:30.137Z,14.53
2018-03-21T15:50:57.102Z,14.40
2018-03-21T15:53:24.518Z,21.50
2018-03-21T15:55:50.750Z,16.53
2018-03-21T15:58:17.064Z,18.13
2018-03-21T16:00:43.297Z,24.93
2018-03-21T16:03:09.540Z,18.83
2018-03-21T16:05:36.185Z,21.50
2018-03-21T16:08:02.441Z,17.50
2018-03-21T16:10:28.706Z,14.73
2018-03-21T16:12:55.572Z,19.23
2018-03-21T16:15:22.558Z,22.70
2018-03-21T16:17:48.846Z,22.50
2018-03-21T16:20:15.894Z,15.47
2018-03-21T16:22:42.151Z,27.20
2018-03-21T16:25:08.486Z,19.53
2018-03-21T16:27:35.500Z,14.70
2018-03-21T16:30:02.338Z,22.67
2018-03-21T16:32:31.372Z,24.10
2018-03-21T16:34:58.957Z,20.67
2018-03-21T16:37:26.094Z,25.70
2018-03-21T16:39:53.095Z,32.63
2018-03-21T16:42:19.794Z,17.07
2018-03-21T16:44:46.781Z,24.37
2018-03-21T16:47:13.473Z,15.97
2018-03-21T16:49:39.730Z,15.60
2018-03-21T16:52:07.479Z,15.13
2018-03-21T16:54:34.102Z,25.90
2018-03-21T16:57:02.418Z,18.07
2018-03-21T16:59:29.444Z,32.23
2018-03-21T17:01:57.185Z,29.90
2018-03-21T17:04:23.956Z,16.90
2018-03-21T17:06:50.778Z,23.37
2018-03-21T17:09:17.015Z,17.40
2018-03-21T17:11:43.732Z,17.43
2018-03-21T17:14:10.406Z,21.10
2018-03-21T17:16:36.683Z,17.90
2018-03-21T17:19:03.723Z,17.47
2018-03-21T17:21:29.974Z,18.00
2018-03-21T17:23:56.974Z,16.80
2018-03-21T17:26:23.326Z,17.63
2018-03-21T17:28:50.017Z,19.43
2018-03-21T17:31:16.672Z,16.87
2018-03-21T17:33:43.324Z,18.17
2018-03-21T17:36:10.457Z,13.83
2018-03-21T17:38:37.489Z,16.33
2018-03-21T17:41:03.790Z,14.87
2018-03-21T17:43:30.455Z,11.33
2018-03-21T17:45:58.861Z,10.90
2018-03-21T17:48:25.846Z,16.30
2018-03-21T17:50:52.102Z,14.80
2018-03-21T17:53:19.193Z,14.07
2018-03-21T17:55:45.442Z,14.50
2018-03-21T17:58:12.431Z,17.20
2018-03-21T18:00:39.357Z,17.77
2018-03-21T18:03:05.617Z,18.53
2018-03-21T18:05:32.407Z,17.77
2018-03-21T18:07:59.406Z,18.43
2018-03-21T18:10:26.110Z,19.10
2018-03-21T18:12:53.098Z,19.53
2018-03-21T18:15:19.351Z,16.77
2018-03-21T18:17:45.625Z,19.20
2018-03-21T18:20:11.985Z,19.40
2018-03-21T18:22:38.350Z,18.67
2018-03-21T18:25:05.390Z,17.53
2018-03-21T18:27:31.647Z,15.50
2018-03-21T18:29:58.817Z,14.40
2018-03-21T18:32:25.588Z,15.07
2018-03-21T18:34:51.862Z,13.33
2018-03-21T18:37:18.462Z,15.57
2018-03-21T18:39:44.721Z,20.40
2018-03-21T18:42:12.166Z,15.73
2018-03-21T18:44:39.161Z,13.67
2018-03-21T18:47:05.414Z,17.83
2018-03-21T18:49:31.906Z,14.53
2018-03-21T18:51:59.398Z,13.50
2018-03-21T18:54:25.738Z,14.07
2018-03-21T18:56:52.046Z,12.97
2018-03-21T18:59:19.601Z,17.43
2018-03-21T19:01:45.886Z,15.00
2018-03-21T19:04:12.571Z,14.30
2018-03-21T19:06:39.247Z,12.90
2018-03-21T19:09:05.523Z,11.80
2018-03-21T19:11:32.297Z,17.03
2018-03-21T19:13:59.278Z,15.40
2018-03-21T19:16:26.193Z,16.03
2018-03-21T19:18:53.198Z,19.50
2018-03-21T19:21:19.438Z,20.60
2018-03-21T19:23:46.038Z,17.30
2018-03-21T19:26:13.902Z,17.43
2018-03-21T19:28:40.878Z,13.43
2018-03-21T19:31:07.815Z,12.87
2018-03-21T19:33:35.405Z,12.80
2018-03-21T19:36:02.223Z,12.27
2018-03-21T19:38:29.265Z,19.93
2018-03-21T19:40:57.000Z,15.70
2018-03-21T19:43:23.887Z,14.20
2018-03-21T19:45:51.205Z,14.33
2018-03-21T19:48:17.563Z,17.87
2018-03-21T19:50:44.772Z,15.50
2018-03-21T19:53:11.720Z,19.00
2018-03-21T19:55:38.879Z,15.67
2018-03-21T19:58:05.265Z,12.80
2018-03-21T20:00:32.486Z,11.20
2018-03-21T20:02:59.064Z,10.57
2018-03-21T20:05:26.987Z,9.87
2018-03-21T20:07:53.526Z,10.57
2018-03-21T20:10:20.351Z,10.60
2018-03-21T20:12:48.217Z,9.83
2018-03-21T20:15:15.201Z,11.57
2018-03-21T20:17:41.903Z,10.83
2018-03-21T20:20:08.889Z,12.20
2018-03-21T20:22:35.153Z,10.10
2018-03-21T20:25:02.058Z,11.20
2018-03-21T20:27:28.332Z,15.07
2018-03-21T20:29:54.598Z,14.50
2018-03-21T20:32:21.462Z,10.73
2018-03-21T20:34:48.908Z,9.80
2018-03-21T20:37:15.566Z,9.30
2018-03-21T20:39:42.587Z,10.50
2018-03-21T20:42:09.396Z,12.70
2018-03-21T20:44:35.657Z,12.33
2018-03-21T20:47:01.919Z,11.17
2018-03-21T20:49:29.714Z,9.87
2018-03-21T20:52:12.214Z,9.80
2018-03-21T20:54:39.577Z,9.23
2018-03-21T20:57:06.575Z,8.97
2018-03-21T20:59:32.841Z,9.77
2018-03-21T21:01:59.414Z,9.40
2018-03-21T21:04:25.671Z,9.07
2018-03-21T21:06:52.586Z,9.77
2018-03-21T21:09:19.589Z,9.20
2018-03-21T21:11:46.200Z,14.50
2018-03-21T21:14:12.922Z,13.90
2018-03-21T21:16:40.000Z,9.97
2018-03-21T21:19:06.694Z,9.60
2018-03-21T21:21:33.438Z,9.10
2018-03-21T21:23:59.688Z,9.03
2018-03-21T21:26:25.958Z,9.47
2018-03-21T21:28:52.242Z,11.27
2018-03-21T21:31:19.327Z,10.30
2018-03-21T21:33:46.314Z,10.37
2018-03-21T21:36:13.046Z,10.00
2018-03-21T21:38:39.434Z,11.30
2018-03-21T21:41:06.073Z,10.57
2018-03-21T21:43:32.804Z,9.37
2018-03-21T21:45:59.062Z,10.87
2018-03-21T21:48:25.792Z,10.13
2018-03-21T21:50:52.561Z,9.70
2018-03-21T21:53:19.186Z,12.90
2018-03-21T21:55:45.458Z,13.20
2018-03-21T21:58:12.466Z,12.30
2018-03-21T22:00:39.082Z,11.13
2018-03-21T22:03:05.894Z,9.77
2018-03-21T22:05:33.334Z,10.40
2018-03-21T22:07:59.607Z,9.13
2018-03-21T22:10:26.443Z,10.10
2018-03-21T22:12:53.986Z,8.77
2018-03-21T22:15:20.252Z,10.53
2018-03-21T22:17:46.522Z,10.40
2018-03-21T22:20:13.433Z,8.73
2018-03-21T22:22:40.170Z,9.67
2018-03-21T22:25:07.172Z,8.13
2018-03-21T22:27:33.430Z,9.00
2018-03-21T22:29:59.914Z,10.60
2018-03-21T22:32:26.840Z,11.57
2018-03-21T22:34:54.407Z,10.87
2018-03-21T22:37:22.169Z,11.30
2018-03-21T22:39:49.142Z,10.50
2018-03-21T22:42:15.873Z,9.50
2018-03-21T22:44:43.455Z,9.17
2018-03-21T22:47:10.286Z,10.97
2018-03-21T22:49:37.735Z,8.83
2018-03-21T22:52:05.169Z,9.13
2018-03-21T22:54:31.437Z,9.10
2018-03-21T22:56:58.430Z,9.63
2018-03-21T22:59:24.910Z,15.20
2018-03-21T23:01:51.166Z,13.87
2018-03-21T23:04:18.345Z,11.63
2018-03-21T23:06:45.131Z,10.93
2018-03-21T23:09:11.382Z,9.70
2018-03-21T23:11:37.634Z,8.97
2018-03-21T23:14:04.846Z,9.93
2018-03-21T23:16:31.641Z,9.47
2018-03-21T23:18:58.617Z,11.33
2018-03-21T23:21:25.618Z,9.60
2018-03-21T23:23:51.865Z,9.70
2018-03-21T23:26:18.120Z,9.57
2018-03-21T23:28:45.422Z,8.73
2018-03-21T23:31:12.322Z,11.63
2018-03-21T23:33:39.331Z,10.70
2018-03-21T23:36:06.222Z,13.33
2018-03-21T23:38:33.253Z,9.90
2018-03-21T23:41:01.987Z,9.33
2018-03-21T23:43:28.800Z,8.50
2018-03-21T23:45:55.676Z,10.10
2018-03-21T23:48:22.531Z,9.77
2018-03-21T23:50:49.255Z,8.23
2018-03-21T23:53:16.615Z,8.30
2018-03-21T23:55:43.615Z,8.70
2018-03-21T23:58:09.875Z,8.73
